Time;durP1;ratioP1;P1;durP2;ratioP2;P2;SDS_P1;SDS_P2;PMS_P1;PMS_P2;Temp;Humidity;BMP_temperature;BMP_pressure;BME280_temperature;BME280_humidity;BME280_pressure;Samples;Min_cycle;Max_cycle;Signal;HPM_P1;HPM_P2
2024/02/15 00:02:25;;;;;;;3.57;3.27;;;9.70;99.90;;;;;;5005383;28;20228;-61
2024/02/15 00:04:53;;;;;;;4.23;3.80;;;9.70;99.90;;;;;;4995065;28;20495;-62
2024/02/15 00:07:22;;;;;;;3.17;2.97;;;9.70;99.90;;;;;;5010077;28;20454;-61
2024/02/15 00:09:48;;;;;;;3.73;3.43;;;9.70;99.90;;;;;;5002404;28;20212;-62
2024/02/15 00:12:15;;;;;;;5.10;4.70;;;9.70;99.90;;;;;;4995867;28;21035;-61
2024/02/15 00:14:42;;;;;;;5.13;4.43;;;9.70;99.90;;;;;;5010448;28;20542;-62
2024/02/15 00:17:09;;;;;;;6.47;5.03;;;9.70;99.90;;;;;;5013124;28;20453;-61
2024/02/15 00:19:36;;;;;;;5.55;4.95;;;9.70;99.90;;;;;;4993773;28;20486;-60
2024/02/15 00:22:04;;;;;;;5.72;5.03;;;9.70;99.90;;;;;;5006530;28;20227;-60
2024/02/15 00:24:31;;;;;;;5.57;5.07;;;9.70;99.90;;;;;;5009795;28;20230;-61
2024/02/15 00:26:58;;;;;;;5.13;4.63;;;9.70;99.90;;;;;;5008607;28;20976;-61
2024/02/15 00:29:28;;;;;;;6.30;5.47;;;9.70;99.90;;;;;;5009614;28;20456;-61
2024/02/15 00:31:55;;;;;;;6.85;6.07;;;9.70;99.90;;;;;;5008366;28;20513;-62
2024/02/15 00:34:22;;;;;;;5.10;4.60;;;9.80;99.90;;;;;;5010509;28;20366;-61
2024/02/15 00:36:49;;;;;;;5.40;4.93;;;9.80;99.90;;;;;;5009253;28;21210;-61
2024/02/15 00:39:18;;;;;;;5.60;5.17;;;9.80;99.90;;;;;;5009019;28;20460;-62
2024/02/15 00:41:45;;;;;;;4.70;4.30;;;9.70;99.90;;;;;;5009710;28;20479;-61
2024/02/15 00:44:12;;;;;;;4.90;4.50;;;9.70;99.90;;;;;;5009811;28;20532;-62
2024/02/15 00:46:41;;;;;;;7.07;4.50;;;9.70;99.90;;;;;;5009649;28;20872;-61
2024/02/15 00:49:08;;;;;;;5.07;4.57;;;9.70;99.90;;;;;;4999378;28;20482;-61
2024/02/15 00:51:36;;;;;;;4.80;4.10;;;9.70;99.90;;;;;;4991662;28;20572;-62
2024/02/15 00:54:04;;;;;;;7.37;4.93;;;9.70;99.90;;;;;;5010477;28;20453;-60
2024/02/15 00:56:32;;;;;;;4.43;4.13;;;9.70;99.90;;;;;;5010402;28;20465;-60
2024/02/15 00:59:00;;;;;;;4.77;3.83;;;9.70;99.90;;;;;;5010199;28;20980;-59
2024/02/15 01:01:27;;;;;;;3.80;3.40;;;9.70;99.90;;;;;;5009588;28;20451;-60
2024/02/15 01:03:54;;;;;;;4.13;3.83;;;9.60;99.90;;;;;;5010019;28;20490;-61
2024/02/15 01:06:22;;;;;;;5.97;4.30;;;9.60;99.90;;;;;;5010124;28;20912;-61
2024/02/15 01:08:48;;;;;;;4.85;3.90;;;9.60;99.90;;;;;;5010357;28;20856;-60
2024/02/15 01:11:15;;;;;;;3.37;3.17;;;9.50;99.90;;;;;;5010179;28;20216;-64
2024/02/15 01:13:44;;;;;;;3.87;3.57;;;9.50;99.90;;;;;;5010389;28;20553;-62
2024/02/15 01:16:11;;;;;;;4.17;3.70;;;9.40;99.90;;;;;;5010353;28;20454;-62
2024/02/15 01:18:38;;;;;;;5.22;4.15;;;9.40;99.90;;;;;;5009929;28;21086;-61
2024/02/15 01:21:06;;;;;;;5.35;4.25;;;9.40;99.90;;;;;;5010231;28;20587;-60
2024/02/15 01:23:33;;;;;;;3.90;3.60;;;9.40;99.90;;;;;;5009411;28;20250;-61
2024/02/15 01:26:01;;;;;;;4.07;3.77;;;9.30;99.90;;;;;;5009956;28;20825;-61
2024/02/15 01:28:27;;;;;;;4.43;4.03;;;9.30;99.90;;;;;;5009584;28;20458;-61
2024/02/15 01:30:56;;;;;;;3.70;3.42;;;9.30;99.90;;;;;;5009820;28;20449;-60
2024/02/15 01:33:23;;;;;;;3.50;3.25;;;9.30;99.90;;;;;;5008145;28;20601;-61
2024/02/15 01:35:50;;;;;;;3.40;3.20;;;9.20;99.90;;;;;;5009619;28;20218;-59
2024/02/15 01:38:16;;;;;;;2.90;2.70;;;9.20;99.90;;;;;;5009852;28;20451;-61
2024/02/15 01:40:43;;;;;;;4.20;3.67;;;9.10;99.90;;;;;;5009456;28;20212;-61
2024/02/15 01:43:10;;;;;;;5.17;4.10;;;9.10;99.90;;;;;;5009172;28;20486;-63
2024/02/15 01:45:37;;;;;;;4.32;4.03;;;9.10;99.90;;;;;;5009676;28;20827;-61
2024/02/15 01:48:06;;;;;;;5.57;4.07;;;9.10;99.90;;;;;;5009771;28;20212;-61
2024/02/15 01:50:34;;;;;;;3.40;3.20;;;9.00;99.90;;;;;;5009370;28;20454;-62
2024/02/15 01:53:06;;;;;;;5.50;4.53;;;9.00;99.90;;;;;;5008893;28;20470;-61
2024/02/15 01:55:34;;;;;;;4.18;3.88;;;9.00;99.90;;;;;;5009564;28;20239;-61
2024/02/15 01:58:01;;;;;;;5.47;3.92;;;9.00;99.90;;;;;;5009507;28;20846;-60
2024/02/15 02:00:29;;;;;;;4.35;3.85;;;9.00;99.90;;;;;;5009325;28;20212;-61
2024/02/15 02:03:02;;;;;;;4.85;4.45;;;8.90;99.90;;;;;;5008965;28;20604;-60
2024/02/15 02:05:31;;;;;;;4.35;3.65;;;8.90;99.90;;;;;;5009259;28;20235;-61
2024/02/15 02:08:01;;;;;;;7.35;3.78;;;8.90;99.90;;;;;;5009267;28;20266;-61
2024/02/15 02:10:32;;;;;;;4.80;4.40;;;8.90;99.90;;;;;;5008970;28;20314;-59
2024/02/15 02:12:59;;;;;;;5.60;4.18;;;8.90;99.90;;;;;;5008524;28;20466;-61
2024/02/15 02:15:26;;;;;;;4.28;3.88;;;8.90;99.90;;;;;;5009413;28;20328;-60
2024/02/15 02:17:53;;;;;;;4.47;4.17;;;8.90;99.90;;;;;;5009296;28;20211;-59
2024/02/15 02:20:20;;;;;;;4.80;4.45;;;8.90;99.90;;;;;;5009159;28;20454;-60
2024/02/15 02:22:51;;;;;;;4.72;3.63;;;8.90;99.90;;;;;;5008107;28;20725;-62
2024/02/15 02:25:19;;;;;;;4.90;4.45;;;8.90;99.90;;;;;;5008522;28;20747;-57
2024/02/15 02:27:48;;;;;;;4.13;3.72;;;8.80;99.90;;;;;;5009192;28;20221;-60
2024/02/15 02:30:18;;;;;;;4.88;4.25;;;8.80;99.90;;;;;;5002272;28;20292;-61
2024/02/15 02:32:46;;;;;;;5.22;3.95;;;8.80;99.90;;;;;;5002931;28;20235;-59
2024/02/15 02:35:13;;;;;;;4.50;4.10;;;8.80;99.90;;;;;;4999354;28;20204;-61
2024/02/15 02:37:40;;;;;;;4.65;4.25;;;8.70;99.90;;;;;;4999158;28;20452;-61
2024/02/15 02:40:08;;;;;;;5.65;3.70;;;8.70;99.90;;;;;;5002733;28;20218;-60
2024/02/15 02:42:37;;;;;;;6.15;4.53;;;8.60;99.90;;;;;;5007407;28;20231;-60
2024/02/15 02:45:05;;;;;;;10.20;5.85;;;8.60;99.90;;;;;;5001082;28;20232;-59
2024/02/15 02:47:32;;;;;;;6.85;5.00;;;8.60;99.90;;;;;;4998457;28;20208;-59
2024/02/15 02:49:58;;;;;;;4.70;4.20;;;8.60;99.90;;;;;;5003513;28;20203;-60
2024/02/15 02:52:25;;;;;;;6.57;5.25;;;8.50;99.90;;;;;;5001574;28;20220;-61
2024/02/15 02:54:52;;;;;;;6.45;5.72;;;8.50;99.90;;;;;;5002332;28;20701;-60
2024/02/15 02:57:19;;;;;;;6.65;6.05;;;8.50;99.90;;;;;;5003775;28;20218;-60
2024/02/15 02:59:47;;;;;;;6.20;5.60;;;8.40;99.90;;;;;;5002039;28;20936;-61
2024/02/15 03:02:14;;;;;;;6.40;5.80;;;8.40;99.90;;;;;;4998015;28;20227;-61
2024/02/15 03:04:41;;;;;;;6.47;5.85;;;8.40;99.90;;;;;;5008713;28;20679;-61
2024/02/15 03:07:08;;;;;;;7.20;5.95;;;8.40;99.90;;;;;;5009715;28;20218;-62
2024/02/15 03:09:37;;;;;;;10.32;7.20;;;8.40;99.90;;;;;;5011072;28;20297;-61
2024/02/15 03:12:04;;;;;;;7.82;6.00;;;8.40;99.90;;;;;;5011868;28;20227;-60
2024/02/15 03:14:32;;;;;;;7.55;6.75;;;8.40;99.90;;;;;;5011950;28;20218;-60
2024/02/15 03:17:03;;;;;;;10.23;7.60;;;8.40;99.90;;;;;;5012414;28;20269;-60
2024/02/15 03:19:30;;;;;;;7.00;6.20;;;8.40;99.90;;;;;;5011991;28;20227;-61
2024/02/15 03:21:57;;;;;;;7.15;6.55;;;8.40;99.90;;;;;;5011984;28;20265;-62
2024/02/15 03:24:24;;;;;;;6.90;6.30;;;8.40;99.90;;;;;;5012413;28;20322;-61
2024/02/15 03:26:52;;;;;;;7.32;6.70;;;8.40;99.90;;;;;;5012019;28;20238;-61
2024/02/15 03:29:20;;;;;;;10.50;6.45;;;8.40;99.90;;;;;;5012174;28;20765;-61
2024/02/15 03:31:48;;;;;;;7.13;6.53;;;8.30;99.90;;;;;;5010876;28;20684;-60
2024/02/15 03:34:16;;;;;;;6.32;5.72;;;8.30;99.90;;;;;;5011907;28;20246;-61
2024/02/15 03:36:43;;;;;;;9.52;5.75;;;8.30;99.90;;;;;;5012051;28;20218;-60
2024/02/15 03:39:10;;;;;;;9.43;6.65;;;8.30;99.90;;;;;;5011928;28;20219;-61
2024/02/15 03:41:37;;;;;;;6.65;5.75;;;8.20;99.90;;;;;;5010836;28;20699;-62
2024/02/15 03:44:04;;;;;;;7.60;4.78;;;8.20;99.90;;;;;;5011509;28;20212;-60
2024/02/15 03:46:32;;;;;;;6.72;5.72;;;8.10;99.90;;;;;;5011591;28;20208;-61
2024/02/15 03:48:59;;;;;;;6.30;5.50;;;8.00;99.90;;;;;;5011394;28;20677;-61
2024/02/15 03:51:27;;;;;;;8.93;6.65;;;8.00;99.90;;;;;;5011269;28;20208;-60
2024/02/15 03:53:54;;;;;;;5.70;5.20;;;8.00;99.90;;;;;;5011958;28;20306;-57
2024/02/15 03:56:21;;;;;;;6.85;6.15;;;8.00;99.90;;;;;;5010825;28;20642;-61
2024/02/15 03:58:50;;;;;;;8.45;6.43;;;8.00;99.90;;;;;;5011700;28;20852;-59
2024/02/15 04:01:17;;;;;;;6.28;5.68;;;8.00;99.90;;;;;;5010929;28;20235;-61
2024/02/15 04:03:44;;;;;;;6.10;5.30;;;8.00;99.90;;;;;;5011426;28;20231;-58
2024/02/15 04:06:11;;;;;;;5.80;5.35;;;8.00;99.90;;;;;;5011246;28;20238;-62
2024/02/15 04:08:39;;;;;;;6.05;5.50;;;8.00;99.90;;;;;;5011175;28;20211;-60
2024/02/15 04:11:07;;;;;;;8.35;6.00;;;8.00;99.90;;;;;;5011412;28;20214;-59
2024/02/15 04:13:34;;;;;;;6.30;5.60;;;8.00;99.90;;;;;;5010692;28;20232;-60
2024/02/15 04:16:00;;;;;;;6.10;5.60;;;8.00;99.90;;;;;;5011425;28;20218;-61
2024/02/15 04:18:31;;;;;;;6.13;5.63;;;8.10;99.90;;;;;;5011129;28;20218;-61
2024/02/15 04:20:59;;;;;;;6.57;5.03;;;8.10;99.90;;;;;;5011401;28;20266;-61
2024/02/15 04:23:25;;;;;;;4.90;4.50;;;8.10;99.90;;;;;;5010671;28;20322;-61
2024/02/15 04:25:54;;;;;;;6.43;4.55;;;8.10;99.90;;;;;;5011167;28;20732;-60
2024/02/15 04:28:21;;;;;;;7.63;5.57;;;8.10;99.90;;;;;;5011226;28;20283;-62
2024/02/15 04:30:48;;;;;;;5.40;4.85;;;8.20;99.90;;;;;;5011253;28;20243;-60
2024/02/15 04:33:15;;;;;;;5.05;4.60;;;8.20;99.90;;;;;;5010051;28;20235;-61
2024/02/15 04:35:43;;;;;;;4.65;4.25;;;8.20;99.90;;;;;;5010778;28;20218;-61
2024/02/15 04:38:09;;;;;;;4.13;3.72;;;8.20;99.90;;;;;;5008081;28;20215;-59
2024/02/15 04:40:38;;;;;;;4.78;3.78;;;8.30;99.90;;;;;;5010503;28;20216;-60
2024/02/15 04:43:06;;;;;;;5.20;4.57;;;8.30;99.90;;;;;;5010355;28;20242;-60
2024/02/15 04:45:33;;;;;;;7.07;6.25;;;8.30;99.90;;;;;;5010535;28;20733;-60
2024/02/15 04:48:01;;;;;;;6.47;5.90;;;8.30;99.90;;;;;;5010550;28;20307;-60
2024/02/15 04:50:29;;;;;;;9.68;5.93;;;8.40;99.90;;;;;;5010401;28;20208;-59
2024/02/15 04:52:56;;;;;;;6.40;5.10;;;8.40;99.90;;;;;;5009869;28;20228;-62
2024/02/15 04:55:23;;;;;;;6.30;5.80;;;8.40;99.90;;;;;;5010422;28;20262;-60
2024/02/15 04:57:54;;;;;;;4.03;3.60;;;8.40;99.90;;;;;;5010504;28;20454;-60
2024/02/15 05:00:25;;;;;;;6.20;5.10;;;8.40;99.90;;;;;;5010609;28;20876;-59
2024/02/15 05:02:52;;;;;;;5.38;4.70;;;8.40;99.90;;;;;;5010060;28;20775;-60
2024/02/15 05:05:19;;;;;;;5.82;5.32;;;8.50;99.90;;;;;;5010315;28;20238;-61
2024/02/15 05:07:48;;;;;;;5.32;4.60;;;8.50;99.90;;;;;;5010102;28;20219;-60
2024/02/15 05:10:16;;;;;;;6.53;5.93;;;8.50;99.90;;;;;;5010193;28;20215;-58
2024/02/15 05:12:43;;;;;;;6.07;5.47;;;8.50;99.90;;;;;;5009539;28;20262;-61
2024/02/15 05:15:11;;;;;;;4.75;3.75;;;8.50;99.90;;;;;;5010141;28;20215;-62
2024/02/15 05:17:41;;;;;;;4.85;4.45;;;8.50;99.90;;;;;;5010084;28;20748;-60
2024/02/15 05:20:11;;;;;;;4.68;3.75;;;8.50;99.90;;;;;;5009938;28;20657;-60
2024/02/15 05:22:39;;;;;;;7.18;4.20;;;8.50;99.90;;;;;;5009629;28;20653;-61
2024/02/15 05:25:07;;;;;;;4.13;3.72;;;8.50;99.90;;;;;;5009857;28;20255;-61
2024/02/15 05:27:35;;;;;;;9.68;4.45;;;8.50;99.90;;;;;;5010054;28;20208;-61
2024/02/15 05:30:06;;;;;;;4.32;3.90;;;8.50;99.90;;;;;;5009754;28;20242;-61
2024/02/15 05:32:34;;;;;;;4.60;4.20;;;8.50;99.90;;;;;;5009331;28;20235;-60
2024/02/15 05:35:03;;;;;;;5.77;4.10;;;8.60;99.90;;;;;;5010268;28;20238;-60
2024/02/15 05:37:30;;;;;;;4.70;4.30;;;8.60;99.90;;;;;;5009859;28;20459;-61
2024/02/15 05:39:57;;;;;;;6.07;5.57;;;8.50;99.90;;;;;;5009755;28;20211;-61
2024/02/15 05:42:24;;;;;;;7.23;6.20;;;8.60;99.90;;;;;;5009192;28;21004;-61
2024/02/15 05:44:51;;;;;;;7.03;5.53;;;8.60;99.90;;;;;;5009494;28;20466;-61
2024/02/15 05:47:18;;;;;;;5.40;4.90;;;8.60;99.90;;;;;;5009831;28;20454;-61
2024/02/15 05:49:46;;;;;;;6.03;5.47;;;8.60;99.90;;;;;;5009622;28;20997;-60
2024/02/15 05:52:14;;;;;;;8.88;6.10;;;8.60;99.90;;;;;;5008993;28;20239;-61
2024/02/15 05:54:41;;;;;;;5.45;4.78;;;8.60;99.90;;;;;;5009518;28;20212;-61
2024/02/15 05:57:08;;;;;;;8.13;5.85;;;8.60;99.90;;;;;;5009465;28;20247;-59
2024/02/15 05:59:35;;;;;;;6.95;6.28;;;8.70;99.90;;;;;;5009100;28;20216;-60
2024/02/15 06:02:02;;;;;;;5.70;5.17;;;8.60;99.90;;;;;;5008909;28;20984;-61
2024/02/15 06:04:30;;;;;;;7.88;4.97;;;8.70;99.90;;;;;;5009767;28;20542;-61
2024/02/15 06:07:00;;;;;;;6.90;6.22;;;8.70;99.90;;;;;;5009476;28;20235;-60
2024/02/15 06:09:30;;;;;;;6.20;5.10;;;8.70;99.90;;;;;;5009179;28;20212;-59
2024/02/15 06:11:57;;;;;;;6.35;5.60;;;8.70;99.90;;;;;;5008650;28;20417;-61
2024/02/15 06:14:24;;;;;;;6.15;5.50;;;8.70;99.90;;;;;;5009128;28;20700;-60
2024/02/15 06:16:52;;;;;;;6.07;4.93;;;8.60;99.90;;;;;;5009343;28;20208;-60
2024/02/15 06:19:19;;;;;;;7.43;4.20;;;8.70;99.90;;;;;;5008444;28;20212;-61
2024/02/15 06:21:46;;;;;;;6.38;4.65;;;8.70;99.90;;;;;;5008550;28;20238;-61
2024/02/15 06:24:13;;;;;;;6.10;4.90;;;8.70;99.90;;;;;;5009038;28;20211;-62
2024/02/15 06:26:42;;;;;;;8.35;5.80;;;8.70;99.90;;;;;;5008772;28;20232;-61
2024/02/15 06:40:23;;;;;;;9.47;5.00;;;8.70;99.90;;;;;;5008863;28;20951;-61
2024/02/15 06:42:52;;;;;;;5.20;4.75;;;8.70;99.90;;;;;;5008163;28;20482;-59
2024/02/15 06:45:19;;;;;;;6.78;6.13;;;8.70;99.90;;;;;;5008651;28;20236;-59
2024/02/15 06:47:46;;;;;;;7.80;6.60;;;8.70;99.90;;;;;;5008236;28;20210;-59
2024/02/15 06:50:13;;;;;;;6.70;5.95;;;8.70;99.90;;;;;;5008433;28;20456;-61
2024/02/15 06:52:40;;;;;;;6.60;5.87;;;8.80;99.90;;;;;;5008204;28;20235;-60
2024/02/15 06:55:09;;;;;;;5.67;5.20;;;8.80;99.90;;;;;;5008704;28;20996;-60
2024/02/15 06:57:36;;;;;;;6.20;5.20;;;8.80;99.90;;;;;;5008352;28;20450;-60
2024/02/15 07:00:07;;;;;;;7.50;5.33;;;8.80;99.90;;;;;;5007851;28;20200;-60
2024/02/15 07:02:34;;;;;;;9.27;5.03;;;8.80;99.90;;;;;;5007781;28;20496;-61
2024/02/15 07:05:02;;;;;;;8.60;7.90;;;8.80;99.90;;;;;;5008222;28;20207;-60
2024/02/15 07:07:29;;;;;;;9.05;6.63;;;8.90;99.90;;;;;;5007811;28;20231;-61
2024/02/15 07:09:57;;;;;;;5.23;4.73;;;8.90;99.90;;;;;;5007880;28;20214;-61
2024/02/15 07:12:24;;;;;;;6.80;6.10;;;8.90;99.90;;;;;;5007579;28;20510;-61
2024/02/15 07:14:51;;;;;;;8.03;5.70;;;8.90;99.90;;;;;;5008215;28;20216;-59
2024/02/15 07:17:20;;;;;;;8.50;6.75;;;8.90;99.90;;;;;;5007944;28;20451;-60
2024/02/15 07:19:49;;;;;;;7.03;5.63;;;8.90;99.90;;;;;;5007867;28;20219;-61
2024/02/15 07:22:16;;;;;;;7.85;6.32;;;9.00;99.90;;;;;;5004730;28;20307;-61
2024/02/15 07:24:43;;;;;;;7.27;6.57;;;9.00;99.90;;;;;;5007806;28;20204;-61
2024/02/15 07:27:11;;;;;;;9.20;6.50;;;9.00;99.90;;;;;;5002260;28;20487;-62
2024/02/15 07:29:38;;;;;;;6.60;5.87;;;9.00;99.90;;;;;;4997763;28;20544;-61
2024/02/15 07:32:06;;;;;;;7.13;6.50;;;9.10;99.90;;;;;;5006554;28;20483;-61
2024/02/15 07:34:34;;;;;;;7.73;6.13;;;9.10;99.90;;;;;;5004283;28;20447;-60
2024/02/15 07:37:03;;;;;;;8.40;6.85;;;9.10;99.90;;;;;;5007797;28;20447;-61
2024/02/15 07:39:30;;;;;;;5.88;5.25;;;9.10;99.90;;;;;;5007301;28;20212;-61
2024/02/15 07:41:58;;;;;;;6.60;5.90;;;9.20;99.90;;;;;;5011463;28;20235;-61
2024/02/15 07:44:25;;;;;;;7.20;6.03;;;9.30;99.90;;;;;;5011644;28;20501;-61
2024/02/15 07:46:52;;;;;;;6.83;5.83;;;9.30;99.90;;;;;;5011438;28;20507;-61
2024/02/15 07:49:19;;;;;;;6.80;6.10;;;9.30;99.90;;;;;;5005338;28;20453;-62
2024/02/15 07:51:52;;;;;;;14.87;12.50;;;9.40;99.90;;;;;;5010038;28;21353;-61
2024/02/15 07:54:20;;;;;;;9.57;7.70;;;9.50;99.90;;;;;;5011254;28;20455;-61
2024/02/15 07:56:48;;;;;;;8.27;7.17;;;9.50;99.90;;;;;;5011332;28;20869;-61
2024/02/15 07:59:16;;;;;;;6.33;4.90;;;9.60;99.90;;;;;;5011157;28;20563;-61
2024/02/15 08:01:43;;;;;;;7.53;5.33;;;9.60;99.90;;;;;;5010519;28;20458;-61
2024/02/15 08:04:10;;;;;;;6.40;4.80;;;9.70;99.90;;;;;;5011372;28;20536;-62
2024/02/15 08:06:38;;;;;;;10.10;6.60;;;9.80;99.90;;;;;;5010858;28;20478;-61
2024/02/15 08:09:06;;;;;;;10.23;5.80;;;9.80;99.90;;;;;;5011226;28;20550;-61
2024/02/15 08:11:33;;;;;;;7.33;5.23;;;9.90;99.90;;;;;;5010541;28;20457;-61
2024/02/15 08:14:00;;;;;;;5.40;4.90;;;9.90;99.90;;;;;;5010853;28;20454;-62
2024/02/15 08:16:28;;;;;;;11.13;7.17;;;9.90;99.90;;;;;;5010017;28;20442;-61
2024/02/15 08:18:55;;;;;;;10.53;7.17;;;10.00;99.90;;;;;;5010231;28;20458;-61
2024/02/15 08:21:27;;;;;;;20.23;10.47;;;10.10;99.90;;;;;;5009396;28;20470;-61
2024/02/15 08:23:55;;;;;;;9.57;7.67;;;10.10;99.90;;;;;;5010705;28;20832;-61
2024/02/15 08:26:23;;;;;;;10.67;8.03;;;10.10;99.90;;;;;;5010931;28;20872;-62
2024/02/15 08:28:50;;;;;;;13.90;8.77;;;10.20;99.90;;;;;;5010329;28;20455;-61
2024/02/15 08:31:19;;;;;;;19.73;9.90;;;10.20;99.90;;;;;;5010382;28;20453;-64
2024/02/15 08:33:46;;;;;;;18.77;8.70;;;10.20;99.90;;;;;;5010428;28;20490;-60
2024/02/15 08:36:13;;;;;;;17.23;10.30;;;10.20;99.90;;;;;;5011044;28;20469;-62
2024/02/15 08:38:41;;;;;;;16.93;8.00;;;10.30;99.90;;;;;;5010912;28;20552;-60
2024/02/15 08:41:08;;;;;;;10.33;6.87;;;10.30;99.90;;;;;;5010706;28;20454;-62
2024/02/15 08:43:39;;;;;;;20.33;15.40;;;10.40;99.90;;;;;;5010006;28;20534;-62
2024/02/15 08:46:07;;;;;;;9.93;9.03;;;10.40;99.90;;;;;;5010766;28;20569;-61
2024/02/15 08:48:33;;;;;;;10.60;9.53;;;10.50;99.90;;;;;;5010419;28;20835;-62
2024/02/15 08:51:00;;;;;;;8.93;8.10;;;10.60;99.90;;;;;;5010639;28;20459;-61
2024/02/15 08:53:27;;;;;;;7.83;7.10;;;10.60;99.90;;;;;;5010062;28;20470;-60
2024/02/15 08:55:54;;;;;;;9.00;8.07;;;10.70;99.90;;;;;;5010326;28;20447;-61
2024/02/15 08:58:22;;;;;;;10.80;9.80;;;10.70;99.90;;;;;;5010500;28;20450;-61
2024/02/15 09:00:50;;;;;;;10.50;9.47;;;10.80;99.90;;;;;;5010141;28;20824;-60
2024/02/15 09:03:18;;;;;;;10.27;8.80;;;10.80;99.90;;;;;;5010002;28;20536;-61
2024/02/15 09:05:45;;;;;;;7.80;6.57;;;10.90;99.90;;;;;;5010187;28;20462;-60
2024/02/15 09:08:12;;;;;;;6.50;5.90;;;10.90;99.90;;;;;;5010412;28;20455;-62
2024/02/15 09:10:39;;;;;;;9.40;7.90;;;11.00;99.90;;;;;;5009476;28;20550;-62
2024/02/15 09:13:07;;;;;;;11.77;6.27;;;11.10;99.90;;;;;;5009695;28;20562;-60
2024/02/15 09:15:33;;;;;;;6.00;5.37;;;11.20;99.90;;;;;;5010278;28;20451;-62
2024/02/15 09:18:01;;;;;;;8.63;6.20;;;11.30;99.90;;;;;;5010460;28;21072;-61
2024/02/15 09:20:29;;;;;;;5.47;5.07;;;11.40;99.90;;;;;;5009914;28;20450;-62
2024/02/15 09:22:56;;;;;;;12.07;5.43;;;11.50;99.90;;;;;;5009710;28;20470;-61
2024/02/15 09:25:24;;;;;;;4.57;4.17;;;11.60;99.90;;;;;;5010081;28;20461;-59
2024/02/15 09:27:53;;;;;;;6.63;5.10;;;11.80;99.90;;;;;;5009831;28;20844;-61
2024/02/15 09:30:20;;;;;;;9.70;6.10;;;11.90;99.90;;;;;;5008002;28;20553;-62
2024/02/15 09:32:47;;;;;;;7.60;5.57;;;12.00;99.90;;;;;;5009038;28;20865;-61
2024/02/15 09:35:15;;;;;;;11.47;6.20;;;12.20;99.90;;;;;;5009551;28;21020;-62
2024/02/15 09:37:45;;;;;;;7.97;3.90;;;12.30;99.90;;;;;;5009671;28;20445;-62
2024/02/15 09:40:16;;;;;;;4.07;3.70;;;12.40;99.90;;;;;;5009509;28;20446;-61
2024/02/15 09:42:44;;;;;;;5.30;4.10;;;12.50;99.90;;;;;;5009095;28;20473;-62
2024/02/15 09:45:14;;;;;;;5.70;5.20;;;12.70;99.90;;;;;;5008963;28;20474;-63
2024/02/15 09:47:41;;;;;;;3.40;3.10;;;12.80;99.90;;;;;;5009404;28;20851;-62
2024/02/15 09:50:11;;;;;;;3.27;2.83;;;12.70;99.90;;;;;;5009416;28;20457;-62
2024/02/15 09:52:40;;;;;;;6.63;3.47;;;12.90;99.90;;;;;;5005562;28;20553;-63
2024/02/15 09:55:10;;;;;;;4.50;2.77;;;12.90;99.90;;;;;;5007614;28;20868;-63
2024/02/15 09:57:38;;;;;;;4.70;3.00;;;13.00;99.90;;;;;;5005973;28;20550;-63
2024/02/15 10:00:07;;;;;;;3.63;3.00;;;13.10;99.90;;;;;;5005711;28;20546;-62
2024/02/15 10:02:36;;;;;;;5.73;2.40;;;13.20;99.90;;;;;;5007542;28;20486;-62
2024/02/15 10:05:03;;;;;;;3.00;2.67;;;13.30;99.90;;;;;;5007933;28;20443;-62
2024/02/15 10:07:30;;;;;;;3.27;2.50;;;13.40;99.90;;;;;;5008214;28;21004;-62
2024/02/15 10:10:17;;;;;;;2.70;2.50;;;13.50;99.90;;;;;;5008556;28;20447;-62
2024/02/15 10:12:44;;;;;;;2.53;2.33;;;13.60;99.90;;;;;;4990693;28;20463;-62
2024/02/15 10:15:11;;;;;;;3.87;3.17;;;13.60;99.90;;;;;;4988977;28;20466;-63
2024/02/15 10:17:38;;;;;;;4.00;2.20;;;13.60;99.90;;;;;;4988521;28;20451;-62
2024/02/15 10:20:06;;;;;;;4.80;2.73;;;13.70;99.90;;;;;;5004713;28;21298;-63
2024/02/15 10:22:33;;;;;;;4.13;2.70;;;13.80;99.90;;;;;;4995027;28;20586;-62
2024/02/15 10:25:13;;;;;;;2.30;2.10;;;13.90;99.90;;;;;;5001619;28;20535;-62
2024/02/15 10:27:40;;;;;;;2.13;1.90;;;13.90;99.90;;;;;;5001680;28;20497;-62
2024/02/15 10:30:19;;;;;;;3.13;2.30;;;13.90;99.90;;;;;;5007966;28;20450;-63
2024/02/15 10:32:48;;;;;;;3.40;2.30;;;14.10;99.90;;;;;;5033205;22;20505;-63
2024/02/15 10:35:24;;;;;;;5.70;2.60;;;14.20;99.90;;;;;;5015714;28;20476;-62
2024/02/15 10:37:52;;;;;;;2.10;1.87;;;14.20;99.90;;;;;;5021760;28;20491;-63
2024/02/15 10:40:21;;;;;;;2.63;1.80;;;14.40;99.90;;;;;;5024058;28;20536;-62
2024/02/15 10:42:49;;;;;;;6.80;2.53;;;14.50;99.90;;;;;;5025159;28;21084;-63
2024/02/15 10:45:17;;;;;;;5.33;2.67;;;14.70;99.90;;;;;;5020528;28;20941;-63
2024/02/15 10:47:45;;;;;;;3.97;3.10;;;14.80;99.90;;;;;;5027069;28;20505;-63
2024/02/15 10:50:12;;;;;;;2.20;2.10;;;14.90;99.90;;;;;;5027442;28;20454;-62
2024/02/15 10:52:49;;;;;;;4.30;1.47;;;15.10;99.90;;;;;;5019932;28;20466;-63
2024/02/15 10:55:33;;;;;;;3.17;2.07;;;15.20;99.90;;;;;;5026902;28;20459;-62
2024/02/15 10:58:04;;;;;;;2.50;1.97;;;15.20;99.90;;;;;;5018221;28;20456;-63
2024/02/15 11:00:37;;;;;;;3.00;1.87;;;15.20;99.90;;;;;;5023127;28;20451;-62
2024/02/15 11:03:06;;;;;;;1.90;1.80;;;15.30;99.90;;;;;;5019351;28;20477;-62
2024/02/15 11:05:35;;;;;;;2.10;1.97;;;15.30;99.90;;;;;;5020808;28;20454;-63
2024/02/15 11:08:04;;;;;;;3.50;1.77;;;15.40;99.90;;;;;;5030995;28;20493;-63
2024/02/15 11:10:33;;;;;;;2.03;1.83;;;15.60;99.90;;;;;;5030917;28;20454;-62
2024/02/15 11:13:00;;;;;;;2.30;2.10;;;15.80;99.90;;;;;;5029348;28;20482;-62
2024/02/15 11:15:48;;;;;;;4.17;2.50;;;15.90;99.90;;;;;;5027640;28;20536;-63
2024/02/15 11:18:48;;;;;;;3.17;2.67;;;16.00;99.90;;;;;;5028199;28;20482;-63
2024/02/15 11:21:16;;;;;;;2.97;1.73;;;16.30;99.90;;;;;;5024455;28;20481;-63
2024/02/15 11:23:44;;;;;;;2.57;2.37;;;16.40;99.90;;;;;;5026428;28;20574;-63
2024/02/15 11:26:46;;;;;;;3.30;2.80;;;16.40;99.90;;;;;;5026667;28;20457;-63
2024/02/15 11:29:52;;;;;;;3.33;2.23;;;16.50;99.90;;;;;;5027136;28;20818;-64
2024/02/15 11:32:36;;;;;;;2.33;2.13;;;16.70;99.90;;;;;;5018980;28;21275;-63
2024/02/15 11:35:10;;;;;;;2.30;2.10;;;16.70;99.90;;;;;;5030494;28;20445;-62
2024/02/15 11:37:55;;;;;;;2.33;2.13;;;16.70;99.90;;;;;;5029859;28;20468;-63
2024/02/15 11:40:23;;;;;;;1.90;1.70;;;16.80;99.90;;;;;;5023616;28;20465;-62
2024/02/15 11:42:54;;;;;;;3.03;2.20;;;16.80;99.90;;;;;;5028773;28;20480;-62
2024/02/15 11:45:21;;;;;;;6.03;2.67;;;16.80;99.90;;;;;;5030376;28;20936;-62
2024/02/15 11:47:52;;;;;;;9.33;2.93;;;16.90;99.90;;;;;;5024213;28;20493;-63
2024/02/15 11:50:21;;;;;;;3.17;1.80;;;17.00;99.90;;;;;;5026147;28;20453;-63
2024/02/15 11:52:48;;;;;;;7.67;2.23;;;17.10;99.90;;;;;;5026190;28;20477;-63
2024/02/15 11:55:16;;;;;;;2.60;1.43;;;;;;;;;;5023918;28;21276;-64
2024/02/15 11:57:50;;;;;;;2.30;1.80;;;17.20;99.90;;;;;;5018130;28;20446;-63
2024/02/15 12:19:46;;;;;;;2.97;1.63;;;17.40;99.90;;;;;;5023140;28;20424;-63
2024/02/15 12:22:13;;;;;;;4.50;1.20;;;17.40;99.90;;;;;;5024182;28;20882;-62
2024/02/15 12:24:40;;;;;;;4.03;3.20;;;17.40;99.90;;;;;;5021472;28;20820;-63
2024/02/15 12:27:07;;;;;;;5.83;2.70;;;17.40;99.90;;;;;;5025663;28;20494;-62
2024/02/15 12:29:35;;;;;;;3.03;1.87;;;17.40;99.90;;;;;;5024013;28;21032;-62
2024/02/15 12:32:03;;;;;;;1.90;1.53;;;17.50;99.90;;;;;;5017776;28;20453;-63
2024/02/15 12:34:30;;;;;;;3.53;1.97;;;17.50;99.90;;;;;;5026328;28;20961;-62
2024/02/15 12:37:08;;;;;;;1.57;1.47;;;17.50;99.90;;;;;;5023316;28;20441;-63
2024/02/15 12:39:36;;;;;;;2.03;1.67;;;17.40;99.90;;;;;;5024480;28;20834;-63
2024/02/15 12:42:03;;;;;;;2.53;1.43;;;17.40;99.90;;;;;;5028838;28;20967;-63
2024/02/15 12:44:33;;;;;;;1.60;1.40;;;17.40;99.90;;;;;;5029414;28;20453;-62
2024/02/15 12:47:02;;;;;;;0.93;0.90;;;17.40;99.90;;;;;;5023188;28;20486;-62
2024/02/15 12:49:32;;;;;;;2.10;1.03;;;17.40;99.90;;;;;;5025856;28;20511;-63
2024/02/15 12:52:36;;;;;;;2.23;1.13;;;17.40;99.90;;;;;;5028078;28;20461;-62
2024/02/15 12:55:14;;;;;;;1.70;0.80;;;17.60;99.90;;;;;;5021745;28;20458;-63
2024/02/15 12:57:44;;;;;;;1.70;1.13;;;17.90;99.90;;;;;;5024182;28;20500;-63
2024/02/15 13:00:17;;;;;;;3.03;1.10;;;18.20;99.90;;;;;;5024769;28;20998;-63
2024/02/15 13:02:45;;;;;;;1.60;1.50;;;18.50;99.90;;;;;;5015534;28;20529;-62
2024/02/15 13:05:13;;;;;;;2.73;1.60;;;18.60;99.90;;;;;;5019887;28;20538;-62
2024/02/15 13:07:41;;;;;;;3.77;1.77;;;18.80;99.90;;;;;;5024151;28;20486;-62
2024/02/15 13:10:09;;;;;;;7.40;1.90;;;18.90;99.90;;;;;;5020207;28;20959;-63
2024/02/15 13:12:37;;;;;;;3.37;1.23;;;19.00;99.90;;;;;;5021455;28;20563;-62
2024/02/15 13:15:07;;;;;;;2.23;0.90;;;19.30;99.90;;;;;;5014916;28;20517;-62
2024/02/15 13:17:34;;;;;;;1.43;0.73;;;19.30;99.90;;;;;;5020748;28;20452;-62
2024/02/15 13:20:05;;;;;;;2.40;1.37;;;19.40;99.90;;;;;;5025308;28;20449;-63
2024/02/15 13:22:36;;;;;;;1.63;1.40;;;19.30;99.90;;;;;;5024109;28;20975;-62
2024/02/15 13:25:03;;;;;;;1.43;0.90;;;19.30;99.90;;;;;;5014947;28;20481;-63
2024/02/15 13:27:30;;;;;;;1.07;1.00;;;19.10;99.90;;;;;;5024354;28;20492;-62
2024/02/15 13:29:58;;;;;;;2.83;0.60;;;18.90;99.90;;;;;;5026905;28;20481;-62
2024/02/15 13:32:25;;;;;;;3.20;1.03;;;18.80;99.90;;;;;;5021189;28;20481;-62